createdAt,value
2023-01-29T00:00:20.447Z,69.34
2023-01-29T00:02:49.286Z,68.66
2023-01-29T00:05:27.468Z,67.58
2023-01-29T00:07:55.468Z,67.57
2023-01-29T00:10:26.515Z,67.16
2023-01-29T00:12:52.950Z,66.89
2023-01-29T00:15:20.681Z,66.73
2023-01-29T00:17:47.056Z,66.72
2023-01-29T00:20:13.563Z,67.56
2023-01-29T00:22:40.657Z,67.94
2023-01-29T00:25:07.739Z,67.94
2023-01-29T00:27:34.193Z,67.90
2023-01-29T00:30:11.260Z,67.54
2023-01-29T00:32:37.722Z,67.75
2023-01-29T00:35:04.298Z,67.33
2023-01-29T00:37:30.861Z,68.06
2023-01-29T00:39:57.639Z,68.28
2023-01-29T00:42:43.457Z,68.61
2023-01-29T00:45:11.299Z,68.58
2023-01-29T00:47:37.900Z,69.19
2023-01-29T00:50:07.304Z,68.32
2023-01-29T00:52:35.491Z,67.98
2023-01-29T00:55:02.822Z,68.73
2023-01-29T00:57:31.388Z,68.58
2023-01-29T00:59:57.937Z,68.68
2023-01-29T01:05:23.371Z,68.50
2023-01-29T01:07:52.756Z,68.96
2023-01-29T01:10:28.613Z,68.54
2023-01-29T01:12:56.514Z,68.77
2023-01-29T01:15:24.672Z,67.75
2023-01-29T01:17:55.655Z,68.20
2023-01-29T01:20:23.040Z,67.96
2023-01-29T01:22:49.739Z,67.81
2023-01-29T01:25:17.459Z,68.18
2023-01-29T01:27:43.854Z,68.08
2023-01-29T01:30:13.030Z,67.20
2023-01-29T01:32:40.666Z,67.35
2023-01-29T01:35:08.289Z,67.82
2023-01-29T01:37:37.493Z,67.41
2023-01-29T01:40:05.677Z,67.68
2023-01-29T01:42:32.127Z,67.37
2023-01-29T01:45:04.441Z,67.80
2023-01-29T01:47:35.600Z,67.15
2023-01-29T01:50:08.188Z,67.67
2023-01-29T01:52:36.813Z,67.54
2023-01-29T01:55:03.685Z,67.22
2023-01-29T01:57:30.983Z,67.42
2023-01-29T02:00:10.948Z,67.50
2023-01-29T02:02:57.948Z,68.21
2023-01-29T02:05:43.520Z,68.08
2023-01-29T02:08:28.919Z,67.61
2023-01-29T02:10:55.759Z,67.92
2023-01-29T02:13:22.467Z,67.49
2023-01-29T02:15:48.926Z,67.42
2023-01-29T02:18:20.365Z,68.28
2023-01-29T02:21:30.601Z,68.35
2023-01-29T02:24:30.383Z,68.97
2023-01-29T02:27:15.526Z,68.99
2023-01-29T02:30:07.675Z,69.76
2023-01-29T02:32:41.812Z,69.93
2023-01-29T02:35:27.629Z,69.94
2023-01-29T02:38:13.826Z,69.88
2023-01-29T02:40:47.065Z,70.36
2023-01-29T02:43:53.912Z,70.25
2023-01-29T02:46:26.214Z,70.11
2023-01-29T02:48:58.814Z,70.27
2023-01-29T02:51:31.790Z,69.33
2023-01-29T02:54:03.768Z,69.64
2023-01-29T02:56:45.201Z,69.78
2023-01-29T02:59:19.001Z,69.82
2023-01-29T03:01:48.854Z,70.26
2023-01-29T03:04:21.977Z,70.60
2023-01-29T03:06:53.136Z,70.93
2023-01-29T03:09:31.037Z,70.58
2023-01-29T03:12:03.001Z,70.23
2023-01-29T03:14:55.703Z,69.63
2023-01-29T03:17:25.605Z,69.11
2023-01-29T03:19:52.002Z,69.96
2023-01-29T03:22:21.816Z,68.62
2023-01-29T03:25:09.191Z,68.10
2023-01-29T03:28:03.369Z,68.86
2023-01-29T03:30:49.771Z,67.78
2023-01-29T03:33:18.473Z,68.94
2023-01-29T03:35:53.963Z,68.88
2023-01-29T03:38:20.458Z,68.92
2023-01-29T03:40:53.473Z,68.97
2023-01-29T03:43:30.572Z,69.49
2023-01-29T03:46:11.697Z,69.38
2023-01-29T03:48:39.972Z,69.51
2023-01-29T03:51:17.594Z,69.76
2023-01-29T03:53:48.600Z,69.82
2023-01-29T03:56:20.712Z,69.86
2023-01-29T03:59:16.420Z,69.79
2023-01-29T04:01:48.522Z,70.05
2023-01-29T04:04:27.078Z,70.04
2023-01-29T04:06:56.640Z,70.46
2023-01-29T04:09:30.355Z,70.15
2023-01-29T04:12:09.550Z,70.21
2023-01-29T04:14:36.768Z,70.18
2023-01-29T04:17:11.392Z,70.43
2023-01-29T04:19:38.431Z,69.97
2023-01-29T04:22:17.332Z,69.50
2023-01-29T04:24:43.897Z,70.77
2023-01-29T04:27:45.853Z,71.17
2023-01-29T04:30:42.719Z,70.67
2023-01-29T04:33:46.853Z,70.89
2023-01-29T04:36:35.479Z,71.46
2023-01-29T04:39:22.898Z,70.67
2023-01-29T04:41:57.310Z,71.62
2023-01-29T04:44:36.053Z,72.02
2023-01-29T04:47:21.734Z,71.91
2023-01-29T04:50:00.152Z,71.94
2023-01-29T04:52:32.212Z,72.17
2023-01-29T04:55:09.476Z,72.47
2023-01-29T04:57:48.483Z,72.72
2023-01-29T05:00:23.972Z,72.86
2023-01-29T05:02:51.238Z,72.25
2023-01-29T05:05:19.576Z,72.55
2023-01-29T05:07:46.355Z,72.97
2023-01-29T05:10:15.072Z,73.09
2023-01-29T05:12:44.098Z,73.59
2023-01-29T05:15:19.559Z,74.02
2023-01-29T05:17:46.002Z,74.10
2023-01-29T05:20:12.494Z,74.43
2023-01-29T05:22:40.673Z,74.46
2023-01-29T05:25:28.977Z,74.53
2023-01-29T05:28:05.075Z,74.70
2023-01-29T05:30:36.029Z,74.06
2023-01-29T05:33:03.119Z,73.20
2023-01-29T05:35:29.633Z,73.47
2023-01-29T05:37:57.023Z,73.77
2023-01-29T05:40:24.922Z,73.32
2023-01-29T05:42:51.310Z,73.37
2023-01-29T05:45:18.740Z,73.97
2023-01-29T05:47:45.583Z,73.27
2023-01-29T05:50:12.990Z,73.71
2023-01-29T05:52:39.804Z,73.71
2023-01-29T05:55:07.243Z,73.51
2023-01-29T05:57:33.711Z,73.52
2023-01-29T06:00:00.130Z,73.62
2023-01-29T06:02:29.720Z,73.97
2023-01-29T06:04:56.134Z,74.19
2023-01-29T06:07:22.490Z,73.98
2023-01-29T06:09:48.900Z,74.33
2023-01-29T06:12:15.336Z,74.13
2023-01-29T06:14:41.702Z,75.15
2023-01-29T06:17:08.094Z,74.85
2023-01-29T06:19:34.503Z,75.17
2023-01-29T06:22:00.868Z,74.71
2023-01-29T06:24:27.249Z,75.07
2023-01-29T06:26:53.736Z,74.84
2023-01-29T06:29:20.101Z,74.39
2023-01-29T06:31:46.487Z,74.48
2023-01-29T06:34:12.975Z,74.88
2023-01-29T06:36:39.353Z,74.91
2023-01-29T06:39:05.708Z,74.88
2023-01-29T06:41:32.075Z,74.59
2023-01-29T06:43:58.520Z,74.96
2023-01-29T06:46:24.844Z,75.16
2023-01-29T06:48:51.276Z,75.06
2023-01-29T06:51:17.681Z,75.32
2023-01-29T06:53:46.297Z,75.49
2023-01-29T06:56:12.985Z,74.82
2023-01-29T06:58:39.415Z,75.10
2023-01-29T07:01:07.735Z,74.66
2023-01-29T07:03:34.380Z,74.87
2023-01-29T07:06:01.461Z,74.71
2023-01-29T07:08:28.398Z,75.06
2023-01-29T07:11:01.635Z,74.69
2023-01-29T07:13:28.060Z,74.58
2023-01-29T07:15:54.897Z,74.67
2023-01-29T07:18:21.341Z,74.69
2023-01-29T07:20:47.748Z,75.02
2023-01-29T07:23:14.313Z,74.52
2023-01-29T07:25:41.288Z,74.37
2023-01-29T07:28:07.873Z,74.61
2023-01-29T07:30:35.427Z,74.96
2023-01-29T07:33:07.568Z,74.60
2023-01-29T07:35:38.819Z,74.68
2023-01-29T07:38:05.252Z,73.90
2023-01-29T07:40:31.845Z,74.10
2023-01-29T07:42:59.739Z,73.85
2023-01-29T07:45:26.079Z,73.52
2023-01-29T07:47:54.511Z,73.62
2023-01-29T07:50:24.774Z,73.69
2023-01-29T07:52:51.222Z,73.55
2023-01-29T07:55:17.889Z,73.00
2023-01-29T07:57:44.446Z,73.42
2023-01-29T08:00:13.415Z,73.58
2023-01-29T08:02:43.328Z,73.47
2023-01-29T08:05:09.735Z,73.45
2023-01-29T08:07:36.140Z,72.67
2023-01-29T08:10:02.505Z,73.02
2023-01-29T08:12:28.892Z,72.76
2023-01-29T08:14:55.365Z,72.67
2023-01-29T08:17:21.674Z,72.25
2023-01-29T08:19:48.078Z,72.27
2023-01-29T08:22:16.394Z,72.41
2023-01-29T08:24:53.727Z,72.67
2023-01-29T08:27:26.572Z,72.87
2023-01-29T08:29:52.928Z,72.36
2023-01-29T08:32:19.310Z,71.45
2023-01-29T08:34:45.708Z,71.51
2023-01-29T08:37:12.043Z,71.22
2023-01-29T08:39:38.443Z,70.45
2023-01-29T08:42:04.884Z,69.81
2023-01-29T08:44:31.263Z,69.92
2023-01-29T08:46:57.693Z,69.85
2023-01-29T08:49:24.496Z,69.33
2023-01-29T08:51:51.529Z,69.41
2023-01-29T08:54:17.922Z,69.43
2023-01-29T08:56:44.311Z,69.11
2023-01-29T08:59:10.949Z,69.02
2023-01-29T09:01:37.308Z,69.84
2023-01-29T09:04:03.767Z,68.75
2023-01-29T09:06:30.207Z,69.02
2023-01-29T09:08:56.694Z,69.49
2023-01-29T09:11:23.161Z,69.83
2023-01-29T09:13:49.551Z,68.81
2023-01-29T09:16:18.403Z,69.13
2023-01-29T09:18:44.732Z,69.64
2023-01-29T09:21:11.178Z,69.65
2023-01-29T09:23:37.877Z,69.55
2023-01-29T09:26:04.373Z,69.08
2023-01-29T09:28:30.785Z,68.99
2023-01-29T09:31:01.348Z,69.20
2023-01-29T09:33:27.874Z,69.32
2023-01-29T09:35:54.253Z,69.19
2023-01-29T09:38:20.767Z,69.86
2023-01-29T09:41:17.890Z,69.56
2023-01-29T09:43:57.127Z,69.89
2023-01-29T09:46:31.024Z,69.41
2023-01-29T09:49:01.859Z,68.96
2023-01-29T09:51:31.479Z,69.67
2023-01-29T09:54:06.277Z,69.63
2023-01-29T09:56:32.725Z,70.04
2023-01-29T09:59:01.393Z,69.34
2023-01-29T10:01:52.832Z,69.76
2023-01-29T10:04:50.764Z,69.19
2023-01-29T10:07:32.121Z,68.89
2023-01-29T10:10:29.699Z,69.17
2023-01-29T10:13:03.090Z,68.53
2023-01-29T10:15:46.667Z,69.14
2023-01-29T10:18:28.270Z,68.43
2023-01-29T10:21:05.628Z,68.65
2023-01-29T10:23:54.706Z,69.08
2023-01-29T10:26:23.757Z,68.61
2023-01-29T10:28:52.298Z,68.53
2023-01-29T10:31:39.767Z,67.89
2023-01-29T10:34:12.072Z,68.24
2023-01-29T10:36:44.884Z,67.96
2023-01-29T10:39:16.726Z,67.64
2023-01-29T10:41:49.125Z,67.39
2023-01-29T10:44:27.537Z,66.85
2023-01-29T10:47:16.495Z,66.80
2023-01-29T10:50:01.506Z,67.78
2023-01-29T10:52:44.513Z,67.82
2023-01-29T10:55:45.312Z,68.16
2023-01-29T11:01:16.127Z,67.21
2023-01-29T11:03:42.575Z,66.95
2023-01-29T11:06:19.593Z,66.50
2023-01-29T11:09:23.612Z,66.54
2023-01-29T11:11:59.212Z,67.43
2023-01-29T11:14:33.008Z,66.84
2023-01-29T11:16:59.740Z,67.34
2023-01-29T11:19:41.784Z,67.74
2023-01-29T11:22:20.397Z,68.46
2023-01-29T11:24:48.243Z,67.82
2023-01-29T11:27:25.930Z,67.11
2023-01-29T11:29:53.324Z,66.65
2023-01-29T11:32:23.446Z,65.64
2023-01-29T11:35:20.253Z,65.20
2023-01-29T11:37:46.958Z,65.68
2023-01-29T11:40:19.513Z,64.01
2023-01-29T11:42:49.599Z,65.33
2023-01-29T11:45:27.496Z,65.87
2023-01-29T11:47:55.215Z,66.40
2023-01-29T11:50:23.876Z,66.52
2023-01-29T11:52:50.302Z,66.45
2023-01-29T11:55:19.597Z,65.58
2023-01-29T11:58:02.153Z,65.60
2023-01-29T12:00:31.202Z,65.78
2023-01-29T12:03:19.703Z,64.44
2023-01-29T12:05:58.003Z,63.93
2023-01-29T12:08:24.930Z,64.40
2023-01-29T12:10:51.452Z,64.82
2023-01-29T12:13:28.101Z,64.85
2023-01-29T12:16:14.848Z,63.84
2023-01-29T12:18:52.059Z,63.71
2023-01-29T12:21:24.179Z,64.96
2023-01-29T12:24:24.964Z,64.71
2023-01-29T12:26:55.525Z,65.42
2023-01-29T12:29:30.001Z,66.22
2023-01-29T12:32:14.964Z,65.68
2023-01-29T12:34:54.299Z,64.52
2023-01-29T12:37:56.828Z,65.25
2023-01-29T12:40:53.321Z,64.56
2023-01-29T12:43:24.372Z,64.41
2023-01-29T12:45:56.678Z,64.89
2023-01-29T12:48:35.057Z,65.64
2023-01-29T12:51:14.732Z,65.45
2023-01-29T12:53:57.858Z,65.61
2023-01-29T12:56:29.467Z,66.30
2023-01-29T12:58:56.454Z,65.78
2023-01-29T13:01:35.614Z,66.38
2023-01-29T13:04:28.255Z,65.65
2023-01-29T13:07:06.606Z,67.13
2023-01-29T13:09:34.388Z,66.85
2023-01-29T13:12:04.567Z,67.07
2023-01-29T13:14:49.767Z,66.83
2023-01-29T13:17:23.282Z,66.64
2023-01-29T13:19:51.586Z,66.38
2023-01-29T13:22:25.542Z,67.12
2023-01-29T13:25:03.717Z,66.88
2023-01-29T13:27:33.050Z,67.09
2023-01-29T13:29:59.630Z,66.69
2023-01-29T13:32:28.653Z,66.44
2023-01-29T13:34:58.067Z,66.63
2023-01-29T13:37:29.698Z,66.14
2023-01-29T13:39:57.513Z,67.09
2023-01-29T13:42:58.925Z,66.99
2023-01-29T13:45:42.357Z,66.54
2023-01-29T13:48:28.214Z,66.86
2023-01-29T13:50:56.646Z,65.97
2023-01-29T13:53:25.874Z,66.17
2023-01-29T13:55:52.353Z,66.72
2023-01-29T13:58:30.859Z,66.24
2023-01-29T14:00:58.636Z,66.18
2023-01-29T14:03:24.951Z,66.86
2023-01-29T14:05:54.049Z,65.88
2023-01-29T14:08:35.424Z,66.77
2023-01-29T14:11:17.263Z,66.46
2023-01-29T14:13:47.985Z,67.71
2023-01-29T14:16:14.306Z,67.08
2023-01-29T14:19:15.737Z,66.72
2023-01-29T14:21:49.148Z,66.72
2023-01-29T14:24:21.456Z,66.22
2023-01-29T14:26:49.061Z,65.72
2023-01-29T14:29:25.661Z,66.13
2023-01-29T14:32:19.515Z,66.13
2023-01-29T14:34:50.535Z,65.63
2023-01-29T14:37:16.926Z,66.52
2023-01-29T14:39:46.805Z,65.86
2023-01-29T14:42:28.778Z,66.36
2023-01-29T14:44:59.010Z,66.22
2023-01-29T14:47:25.406Z,66.54
2023-01-29T14:49:53.055Z,66.24
2023-01-29T14:52:22.774Z,64.31
2023-01-29T14:54:50.477Z,63.29
2023-01-29T14:57:18.081Z,64.14
2023-01-29T14:59:56.492Z,65.50
2023-01-29T15:02:27.567Z,66.02
2023-01-29T15:04:56.987Z,65.25
2023-01-29T15:07:28.581Z,65.16
2023-01-29T15:10:20.941Z,65.67
2023-01-29T15:13:24.866Z,65.56
2023-01-29T15:15:55.226Z,66.13
2023-01-29T15:18:39.674Z,67.09
2023-01-29T15:21:14.567Z,66.35
2023-01-29T15:23:40.965Z,66.24
2023-01-29T15:26:11.450Z,64.19
2023-01-29T15:28:38.703Z,64.98
2023-01-29T15:31:08.088Z,66.01
2023-01-29T15:33:35.868Z,67.03
2023-01-29T15:36:07.652Z,68.67
2023-01-29T15:38:34.756Z,68.52
2023-01-29T15:41:17.831Z,68.91
2023-01-29T15:43:49.164Z,68.94
2023-01-29T15:46:27.968Z,69.73
2023-01-29T15:48:57.716Z,69.58
2023-01-29T15:51:25.922Z,69.82
2023-01-29T15:54:00.632Z,70.36
2023-01-29T15:56:37.221Z,70.77
2023-01-29T15:59:09.352Z,70.54
2023-01-29T16:01:36.405Z,70.59
2023-01-29T16:04:02.968Z,70.34
2023-01-29T16:06:40.412Z,70.99
2023-01-29T16:09:07.218Z,71.07
2023-01-29T16:11:34.739Z,71.44
2023-01-29T16:14:01.459Z,71.43
2023-01-29T16:16:28.025Z,71.75
2023-01-29T16:19:00.319Z,72.23
2023-01-29T16:21:33.045Z,72.63
2023-01-29T16:24:02.569Z,72.06
2023-01-29T16:26:32.614Z,72.42
2023-01-29T16:29:04.608Z,72.15
2023-01-29T16:31:31.958Z,72.29
2023-01-29T16:33:59.365Z,72.95
2023-01-29T16:36:27.457Z,72.55
2023-01-29T16:39:00.444Z,72.59
2023-01-29T16:41:31.061Z,72.52
2023-01-29T16:44:22.001Z,72.91
2023-01-29T16:46:51.109Z,72.87
2023-01-29T16:49:26.944Z,73.22
2023-01-29T16:51:54.191Z,73.94
2023-01-29T16:54:25.859Z,73.79
2023-01-29T16:56:56.151Z,73.79
2023-01-29T16:59:36.790Z,73.89
2023-01-29T17:02:04.318Z,74.35
2023-01-29T17:04:30.662Z,73.98
2023-01-29T17:07:03.987Z,73.75
2023-01-29T17:09:33.959Z,74.51
2023-01-29T17:12:06.375Z,74.50
2023-01-29T17:14:35.857Z,74.28
2023-01-29T17:17:04.233Z,74.61
2023-01-29T17:19:30.658Z,74.29
2023-01-29T17:21:58.297Z,74.53
2023-01-29T17:24:27.712Z,75.15
2023-01-29T17:26:54.326Z,75.20
2023-01-29T17:29:24.350Z,74.90
2023-01-29T17:31:51.030Z,75.56
2023-01-29T17:34:18.606Z,75.67
2023-01-29T17:36:48.263Z,75.79
2023-01-29T17:39:19.293Z,76.49
2023-01-29T17:41:49.919Z,77.38
2023-01-29T17:44:16.679Z,77.34
2023-01-29T17:46:43.645Z,77.05
2023-01-29T17:49:32.626Z,76.75
2023-01-29T17:51:59.328Z,76.41
2023-01-29T17:54:26.202Z,76.70
2023-01-29T17:56:53.566Z,77.14
2023-01-29T17:59:22.304Z,76.80
2023-01-29T18:01:50.253Z,77.02
2023-01-29T18:04:17.584Z,76.96
2023-01-29T18:06:46.294Z,77.14
2023-01-29T18:09:20.477Z,77.66
2023-01-29T18:11:48.267Z,77.87
2023-01-29T18:14:15.096Z,77.51
2023-01-29T18:16:45.248Z,78.16
2023-01-29T18:19:20.860Z,77.99
2023-01-29T18:21:47.971Z,77.83
2023-01-29T18:24:14.575Z,78.39
2023-01-29T18:26:41.099Z,78.54
2023-01-29T18:29:08.132Z,78.46
2023-01-29T18:31:34.554Z,78.21
2023-01-29T18:34:01.055Z,78.19
2023-01-29T18:36:27.490Z,78.69
2023-01-29T18:38:53.878Z,78.70
2023-01-29T18:41:20.470Z,78.43
2023-01-29T18:43:47.002Z,78.29
2023-01-29T18:46:13.696Z,78.39
2023-01-29T18:48:42.360Z,78.33
2023-01-29T18:51:09.626Z,78.81
2023-01-29T18:53:36.136Z,78.70
2023-01-29T18:56:05.516Z,79.21
2023-01-29T18:58:36.827Z,79.75
2023-01-29T19:01:10.069Z,79.91
2023-01-29T19:03:36.902Z,80.08
2023-01-29T19:06:04.425Z,79.77
2023-01-29T19:08:31.191Z,79.54
2023-01-29T19:11:02.020Z,80.05
2023-01-29T19:13:29.526Z,79.78
2023-01-29T19:15:56.087Z,79.63
2023-01-29T19:18:27.849Z,80.18
2023-01-29T19:20:54.808Z,80.08
2023-01-29T19:23:22.084Z,80.52
2023-01-29T19:25:48.539Z,79.86
2023-01-29T19:28:15.244Z,80.12
2023-01-29T19:30:41.826Z,79.65
2023-01-29T19:33:09.570Z,79.58
2023-01-29T19:35:38.850Z,79.78
2023-01-29T19:38:05.250Z,79.63
2023-01-29T19:40:31.646Z,79.91
2023-01-29T19:42:58.610Z,79.74
2023-01-29T19:45:42.111Z,79.90
2023-01-29T19:48:20.124Z,78.70
2023-01-29T19:51:10.659Z,78.95
2023-01-29T19:53:43.674Z,78.62
2023-01-29T19:56:18.736Z,78.42
2023-01-29T19:58:45.162Z,78.46
2023-01-29T20:01:21.219Z,78.13
2023-01-29T20:03:49.074Z,78.06
2023-01-29T20:06:17.785Z,78.17
2023-01-29T20:08:47.948Z,77.67
2023-01-29T20:11:16.227Z,77.34
2023-01-29T20:13:44.849Z,77.35
2023-01-29T20:16:11.503Z,76.74
2023-01-29T20:18:37.899Z,77.15
2023-01-29T20:21:10.061Z,76.94
2023-01-29T20:23:38.739Z,76.78
2023-01-29T20:26:11.434Z,76.81
2023-01-29T20:28:37.926Z,76.59
2023-01-29T20:31:05.709Z,76.27
2023-01-29T20:33:34.556Z,75.96
2023-01-29T20:36:03.311Z,76.18
2023-01-29T20:38:31.562Z,76.44
2023-01-29T20:41:05.194Z,76.34
2023-01-29T20:43:31.985Z,76.54
2023-01-29T20:45:58.675Z,76.76
2023-01-29T20:48:25.189Z,76.99
2023-01-29T20:50:53.583Z,77.64
2023-01-29T20:53:19.863Z,77.45
2023-01-29T20:55:46.499Z,77.96
2023-01-29T20:58:13.048Z,77.96
2023-01-29T21:00:39.568Z,78.12
2023-01-29T21:03:05.973Z,78.18
2023-01-29T21:05:32.392Z,78.17
2023-01-29T21:07:58.735Z,77.91
2023-01-29T21:10:25.192Z,78.48
2023-01-29T21:12:51.658Z,78.10
2023-01-29T21:15:18.065Z,77.94
2023-01-29T21:17:44.440Z,77.85
2023-01-29T21:20:11.214Z,78.05
2023-01-29T21:22:37.713Z,77.84
2023-01-29T21:25:04.274Z,77.42
2023-01-29T21:27:30.683Z,77.45
2023-01-29T21:29:57.266Z,77.39
2023-01-29T21:32:23.812Z,77.08
2023-01-29T21:34:52.646Z,77.25
2023-01-29T21:37:19.160Z,77.10
2023-01-29T21:39:45.959Z,77.22
2023-01-29T21:42:30.840Z,77.81
2023-01-29T21:44:57.226Z,77.66
2023-01-29T21:47:23.724Z,77.63
2023-01-29T21:49:50.141Z,77.73
2023-01-29T21:52:16.559Z,77.67
2023-01-29T21:54:46.767Z,78.08
2023-01-29T21:57:14.937Z,78.04
2023-01-29T21:59:42.079Z,77.82
2023-01-29T22:02:15.464Z,77.63
2023-01-29T22:04:42.519Z,77.69
2023-01-29T22:07:12.738Z,77.26
2023-01-29T22:09:39.311Z,77.59
2023-01-29T22:12:06.986Z,77.57
2023-01-29T22:14:33.745Z,78.02
2023-01-29T22:17:00.629Z,78.30
2023-01-29T22:19:29.075Z,77.86
2023-01-29T22:21:55.604Z,77.31
2023-01-29T22:24:24.237Z,77.82
2023-01-29T22:26:50.717Z,77.87
2023-01-29T22:29:17.281Z,77.59
2023-01-29T22:31:44.328Z,77.89
2023-01-29T22:34:13.961Z,77.90
2023-01-29T22:36:40.429Z,77.98
2023-01-29T22:39:10.254Z,78.03
2023-01-29T22:41:36.787Z,77.95
2023-01-29T22:44:03.570Z,77.97
2023-01-29T22:46:30.072Z,78.56
2023-01-29T22:48:56.827Z,78.40
2023-01-29T22:51:23.586Z,77.61
2023-01-29T22:53:54.298Z,77.96
2023-01-29T22:56:25.270Z,77.93
2023-01-29T22:58:52.999Z,78.17
2023-01-29T23:01:24.171Z,78.33
2023-01-29T23:03:50.644Z,78.26
2023-01-29T23:06:18.228Z,78.32
2023-01-29T23:08:44.990Z,78.41
2023-01-29T23:11:15.176Z,78.79
2023-01-29T23:13:49.856Z,78.56
2023-01-29T23:16:16.875Z,78.65
2023-01-29T23:18:46.799Z,78.68
2023-01-29T23:21:13.243Z,78.62
2023-01-29T23:23:39.661Z,78.41
2023-01-29T23:26:29.251Z,78.40
2023-01-29T23:28:55.915Z,78.53
2023-01-29T23:31:22.397Z,78.84
2023-01-29T23:33:49.853Z,78.70
2023-01-29T23:36:16.447Z,78.88
2023-01-29T23:38:42.924Z,78.84
2023-01-29T23:41:11.742Z,79.13
2023-01-29T23:43:38.163Z,78.94
2023-01-29T23:46:04.815Z,79.51
2023-01-29T23:48:31.393Z,79.27
2023-01-29T23:50:57.819Z,78.93
2023-01-29T23:53:24.209Z,79.29
2023-01-29T23:55:58.169Z,79.34
2023-01-29T23:58:25.057Z,79.38
